createdAt,value
2023-04-02T00:02:33.895Z,5.27
2023-04-02T00:05:51.531Z,6.20
2023-04-02T00:08:38.741Z,5.66
2023-04-02T00:11:07.947Z,5.90
2023-04-02T00:13:40.374Z,5.72
2023-04-02T00:16:14.267Z,6.15
2023-04-02T00:18:47.515Z,5.79
2023-04-02T00:21:22.288Z,5.60
2023-04-02T00:23:50.478Z,5.88
2023-04-02T00:26:24.566Z,5.83
2023-04-02T00:28:52.964Z,5.52
2023-04-02T00:31:22.720Z,6.09
2023-04-02T00:33:51.774Z,6.29
2023-04-02T00:36:22.094Z,6.53
2023-04-02T00:38:50.291Z,6.39
2023-04-02T00:41:23.399Z,6.29
2023-04-02T00:43:51.763Z,6.04
2023-04-02T00:46:24.974Z,6.05
2023-04-02T00:48:58.681Z,5.94
2023-04-02T00:51:30.803Z,5.82
2023-04-02T00:54:01.840Z,5.93
2023-04-02T00:56:32.188Z,6.28
2023-04-02T00:59:00.496Z,5.60
2023-04-02T01:01:36.500Z,6.27
2023-04-02T01:04:06.113Z,6.31
2023-04-02T01:06:37.434Z,6.12
2023-04-02T01:09:19.514Z,6.11
2023-04-02T01:12:11.515Z,6.22
2023-04-02T01:14:46.635Z,6.29
2023-04-02T01:17:33.785Z,6.66
2023-04-02T01:20:26.434Z,5.88
2023-04-02T01:23:02.495Z,5.86
2023-04-02T01:25:37.472Z,5.58
2023-04-02T01:28:11.701Z,5.74
2023-04-02T01:30:42.359Z,6.25
2023-04-02T01:33:10.205Z,5.90
2023-04-02T01:35:42.461Z,6.09
2023-04-02T01:38:15.347Z,6.72
2023-04-02T01:40:48.336Z,6.48
2023-04-02T01:43:23.561Z,6.05
2023-04-02T01:45:53.388Z,5.97
2023-04-02T01:48:27.415Z,6.05
2023-04-02T01:50:57.793Z,6.09
2023-04-02T01:53:28.823Z,5.94
2023-04-02T01:55:59.394Z,6.46
2023-04-02T01:58:30.078Z,6.64
2023-04-02T02:01:02.092Z,6.51
2023-04-02T02:03:30.347Z,5.63
2023-04-02T02:05:58.810Z,6.36
2023-04-02T02:08:38.234Z,6.14
2023-04-02T02:11:06.917Z,6.49
2023-04-02T02:13:34.833Z,6.39
2023-04-02T02:16:06.072Z,5.67
2023-04-02T02:18:34.276Z,6.09
2023-04-02T02:21:06.182Z,6.50
2023-04-02T02:23:34.227Z,6.68
2023-04-02T02:26:02.033Z,6.75
2023-04-02T02:28:34.248Z,6.40
2023-04-02T02:31:07.423Z,6.71
2023-04-02T02:33:39.895Z,6.36
2023-04-02T02:36:17.103Z,6.70
2023-04-02T02:38:55.619Z,6.72
2023-04-02T02:41:29.934Z,6.48
2023-04-02T02:44:03.257Z,6.23
2023-04-02T02:46:34.871Z,6.77
2023-04-02T02:49:05.399Z,6.60
2023-04-02T02:51:41.874Z,6.23
2023-04-02T02:54:09.930Z,6.51
2023-04-02T02:56:43.007Z,6.59
2023-04-02T02:59:13.431Z,6.91
2023-04-02T03:01:44.443Z,7.05
2023-04-02T03:04:12.589Z,6.32
2023-04-02T03:06:41.824Z,6.33
2023-04-02T03:09:20.546Z,6.45
2023-04-02T03:11:53.462Z,6.51
2023-04-02T03:14:27.510Z,6.77
2023-04-02T03:17:01.769Z,6.24
2023-04-02T03:19:36.173Z,6.70
2023-04-02T03:22:09.698Z,6.48
2023-04-02T03:24:42.545Z,6.59
2023-04-02T03:27:16.352Z,6.91
2023-04-02T03:29:52.510Z,6.76
2023-04-02T03:32:24.665Z,6.99
2023-04-02T03:34:57.378Z,7.26
2023-04-02T03:37:29.163Z,7.08
2023-04-02T03:40:01.244Z,6.70
2023-04-02T03:42:37.178Z,6.50
2023-04-02T03:45:12.264Z,6.98
2023-04-02T03:47:46.419Z,7.46
2023-04-02T03:50:21.244Z,7.09
2023-04-02T03:52:49.770Z,7.14
2023-04-02T03:55:21.458Z,7.05
2023-04-02T03:57:57.027Z,6.37
2023-04-02T04:00:33.576Z,6.56
2023-04-02T04:03:11.165Z,7.08
2023-04-02T04:05:48.340Z,6.84
2023-04-02T04:08:19.803Z,6.73
2023-04-02T04:10:52.526Z,6.70
2023-04-02T04:13:25.877Z,6.93
2023-04-02T04:15:58.901Z,7.04
2023-04-02T04:18:37.970Z,7.12
2023-04-02T04:21:13.047Z,6.54
2023-04-02T04:23:50.712Z,6.93
2023-04-02T04:26:24.641Z,6.92
2023-04-02T04:29:05.492Z,7.04
2023-04-02T04:31:39.832Z,6.95
2023-04-02T04:34:16.432Z,7.53
2023-04-02T04:36:48.052Z,7.34
2023-04-02T04:39:23.934Z,7.87
2023-04-02T04:41:54.499Z,7.27
2023-04-02T04:44:24.820Z,7.19
2023-04-02T04:46:58.465Z,7.08
2023-04-02T04:49:33.440Z,7.50
2023-04-02T04:52:09.016Z,7.13
2023-04-02T04:54:39.060Z,7.04
2023-04-02T04:57:17.689Z,6.73
2023-04-02T04:59:52.693Z,6.48
2023-04-02T05:02:27.833Z,7.05
2023-04-02T05:04:58.227Z,6.67
2023-04-02T05:07:29.418Z,7.15
2023-04-02T05:10:00.925Z,6.62
2023-04-02T05:12:36.507Z,7.07
2023-04-02T05:15:15.211Z,7.39
2023-04-02T05:17:51.236Z,6.94
2023-04-02T05:20:26.096Z,6.64
2023-04-02T05:22:58.723Z,6.92
2023-04-02T05:25:28.381Z,7.55
2023-04-02T05:28:03.414Z,6.87
2023-04-02T05:30:41.290Z,7.03
2023-04-02T05:33:21.981Z,7.04
2023-04-02T05:35:58.993Z,6.85
2023-04-02T05:38:29.239Z,7.16
2023-04-02T05:41:02.031Z,7.19
2023-04-02T05:43:32.988Z,7.21
2023-04-02T05:46:04.928Z,6.88
2023-04-02T05:48:37.076Z,6.78
2023-04-02T05:51:09.412Z,6.35
2023-04-02T05:53:41.632Z,6.14
2023-04-02T05:56:17.480Z,6.75
2023-04-02T05:58:49.177Z,7.46
2023-04-02T06:01:25.122Z,7.24
2023-04-02T06:04:00.288Z,7.39
2023-04-02T06:06:46.473Z,7.38
2023-04-02T06:09:19.270Z,7.28
2023-04-02T06:11:52.112Z,7.23
2023-04-02T06:14:19.906Z,7.14
2023-04-02T06:16:47.967Z,6.90
2023-04-02T06:19:19.941Z,7.09
2023-04-02T06:21:52.075Z,7.62
2023-04-02T06:24:24.837Z,7.60
2023-04-02T06:26:58.558Z,7.53
2023-04-02T06:29:34.034Z,7.45
2023-04-02T06:32:03.131Z,7.07
2023-04-02T06:34:32.794Z,7.13
2023-04-02T06:37:04.803Z,7.44
2023-04-02T06:39:32.521Z,7.45
2023-04-02T06:42:04.131Z,7.03
2023-04-02T06:44:35.248Z,7.99
2023-04-02T06:47:07.297Z,8.05
2023-04-02T06:49:39.776Z,7.22
2023-04-02T06:52:15.019Z,7.67
2023-04-02T06:54:42.754Z,7.25
2023-04-02T06:57:13.125Z,7.43
2023-04-02T06:59:41.105Z,7.62
2023-04-02T07:02:27.087Z,7.98
2023-04-02T07:05:05.860Z,7.95
2023-04-02T07:07:35.083Z,8.27
2023-04-02T07:10:02.814Z,7.95
2023-04-02T07:12:30.539Z,7.47
2023-04-02T07:14:58.232Z,7.43
2023-04-02T07:17:26.039Z,7.42
2023-04-02T07:19:53.980Z,7.96
2023-04-02T07:22:22.204Z,7.12
2023-04-02T07:24:51.309Z,7.91
2023-04-02T07:27:19.104Z,7.42
2023-04-02T07:29:46.810Z,6.85
2023-04-02T07:32:14.721Z,7.53
2023-04-02T07:34:42.598Z,6.93
2023-04-02T07:37:15.135Z,7.98
2023-04-02T07:39:42.843Z,7.29
2023-04-02T07:42:11.963Z,7.64
2023-04-02T07:44:39.632Z,7.62
2023-04-02T07:47:08.557Z,8.31
2023-04-02T07:49:36.276Z,8.23
2023-04-02T07:52:04.790Z,8.04
2023-04-02T07:54:32.486Z,7.87
2023-04-02T07:57:00.295Z,8.11
2023-04-02T07:59:29.359Z,8.31
2023-04-02T08:01:57.857Z,8.08
2023-04-02T08:04:25.672Z,8.93
2023-04-02T08:06:53.973Z,9.06
2023-04-02T08:09:21.987Z,9.12
2023-04-02T08:11:49.682Z,9.62
2023-04-02T08:14:17.425Z,10.04
2023-04-02T08:16:49.261Z,9.21
2023-04-02T08:19:17.422Z,9.00
2023-04-02T08:21:45.298Z,9.16
2023-04-02T08:24:13.019Z,9.78
2023-04-02T08:26:41.054Z,9.89
2023-04-02T08:29:08.776Z,10.25
2023-04-02T08:31:36.512Z,10.17
2023-04-02T08:34:05.937Z,10.52
2023-04-02T08:36:37.209Z,10.17
2023-04-02T08:39:06.472Z,10.06
2023-04-02T08:41:38.979Z,10.30
2023-04-02T08:44:23.370Z,9.91
2023-04-02T08:46:56.156Z,9.95
2023-04-02T08:49:30.723Z,10.26
2023-04-02T08:51:58.653Z,11.07
2023-04-02T08:54:29.308Z,10.53
2023-04-02T08:57:02.963Z,10.58
2023-04-02T08:59:35.469Z,11.24
2023-04-02T09:02:28.524Z,10.32
2023-04-02T09:05:01.389Z,10.05
2023-04-02T09:07:29.463Z,9.52
2023-04-02T09:09:58.222Z,10.04
2023-04-02T09:12:28.823Z,9.98
2023-04-02T09:15:07.316Z,10.46
2023-04-02T09:17:46.379Z,11.04
2023-04-02T09:20:26.307Z,11.39
2023-04-02T09:22:55.079Z,12.45
2023-04-02T09:25:26.908Z,12.63
2023-04-02T09:27:57.175Z,12.05
2023-04-02T09:30:34.385Z,11.52
2023-04-02T09:33:07.548Z,12.65
2023-04-02T09:35:38.641Z,10.56
2023-04-02T09:38:25.049Z,10.98
2023-04-02T09:40:59.514Z,12.15
2023-04-02T09:43:29.455Z,11.94
2023-04-02T09:46:00.337Z,12.45
2023-04-02T09:48:31.448Z,12.68
2023-04-02T09:51:14.456Z,13.21
2023-04-02T09:53:43.543Z,13.97
2023-04-02T09:56:14.704Z,13.77
2023-04-02T09:58:45.110Z,14.00
2023-04-02T10:01:30.883Z,12.83
2023-04-02T10:04:00.140Z,11.89
2023-04-02T10:06:31.359Z,12.42
2023-04-02T10:08:59.291Z,12.86
2023-04-02T10:11:43.694Z,12.93
2023-04-02T10:14:20.092Z,13.40
2023-04-02T10:16:52.990Z,12.78
2023-04-02T10:19:29.962Z,13.22
2023-04-02T10:22:00.802Z,13.63
2023-04-02T10:24:29.656Z,12.47
2023-04-02T10:27:17.570Z,12.76
2023-04-02T10:30:02.210Z,12.98
2023-04-02T10:32:35.035Z,13.19
2023-04-02T10:35:07.394Z,14.12
2023-04-02T10:37:55.881Z,13.89
2023-04-02T10:40:29.466Z,14.17
2023-04-02T10:43:16.175Z,13.89
2023-04-02T10:45:48.385Z,16.28
2023-04-02T10:48:23.876Z,15.45
2023-04-02T10:51:01.990Z,13.45
2023-04-02T10:53:38.831Z,13.68
2023-04-02T10:56:11.150Z,12.55
2023-04-02T10:58:44.084Z,11.48
2023-04-02T11:01:18.721Z,12.82
2023-04-02T11:03:49.822Z,12.49
2023-04-02T11:06:22.300Z,11.35
2023-04-02T11:08:53.582Z,13.24
2023-04-02T11:11:24.806Z,13.26
2023-04-02T11:13:58.896Z,15.46
2023-04-02T11:16:27.973Z,13.39
2023-04-02T11:19:24.521Z,11.84
2023-04-02T11:21:59.688Z,13.31
2023-04-02T11:24:45.716Z,14.35
2023-04-02T11:27:21.801Z,14.74
2023-04-02T11:29:52.812Z,14.82
2023-04-02T11:32:39.461Z,13.13
2023-04-02T11:35:36.862Z,13.67
2023-04-02T11:38:43.653Z,12.20
2023-04-02T11:41:12.867Z,11.49
2023-04-02T11:44:01.535Z,14.16
2023-04-02T11:46:46.430Z,13.31
2023-04-02T11:49:39.699Z,10.86
2023-04-02T11:52:23.460Z,10.70
2023-04-02T11:55:00.872Z,12.60
2023-04-02T11:57:44.427Z,12.56
2023-04-02T12:00:25.554Z,12.04
2023-04-02T12:03:04.479Z,13.34
2023-04-02T12:05:39.384Z,14.41
2023-04-02T12:08:25.122Z,13.17
2023-04-02T12:10:57.651Z,12.06
2023-04-02T12:13:51.979Z,12.05
2023-04-02T12:16:20.650Z,12.26
2023-04-02T12:18:53.744Z,11.97
2023-04-02T12:21:24.131Z,12.43
2023-04-02T12:23:54.633Z,13.58
2023-04-02T12:26:30.084Z,13.08
2023-04-02T12:29:24.776Z,13.85
2023-04-02T12:31:53.991Z,14.95
2023-04-02T12:34:23.705Z,14.13
2023-04-02T12:36:56.526Z,11.84
2023-04-02T12:39:27.403Z,13.68
2023-04-02T12:41:56.535Z,12.59
2023-04-02T12:44:28.079Z,13.17
2023-04-02T12:46:56.628Z,13.29
2023-04-02T12:49:35.715Z,14.93
2023-04-02T12:52:05.649Z,11.38
2023-04-02T12:54:38.126Z,11.90
2023-04-02T12:57:23.882Z,13.43
2023-04-02T12:59:53.718Z,13.49
2023-04-02T13:02:23.245Z,13.02
2023-04-02T13:04:52.293Z,12.39
2023-04-02T13:07:23.116Z,13.52
2023-04-02T13:09:52.854Z,15.37
2023-04-02T13:12:28.649Z,14.93
2023-04-02T13:15:00.045Z,11.41
2023-04-02T13:17:42.460Z,11.28
2023-04-02T13:20:33.249Z,12.45
2023-04-02T13:23:03.432Z,12.21
2023-04-02T13:25:35.702Z,12.59
2023-04-02T13:28:03.662Z,13.82
2023-04-02T13:30:32.739Z,14.21
2023-04-02T13:33:00.527Z,11.32
2023-04-02T13:35:28.249Z,10.84
2023-04-02T13:37:56.233Z,11.82
2023-04-02T13:40:24.533Z,13.06
2023-04-02T13:42:52.311Z,11.39
2023-04-02T13:45:25.403Z,11.06
2023-04-02T13:47:57.244Z,11.84
2023-04-02T13:50:25.676Z,12.24
2023-04-02T13:52:54.629Z,12.95
2023-04-02T13:55:25.969Z,13.33
2023-04-02T13:57:53.688Z,11.48
2023-04-02T14:00:21.705Z,10.92
2023-04-02T14:02:53.576Z,10.95
2023-04-02T14:05:33.760Z,12.43
2023-04-02T14:08:09.028Z,12.60
2023-04-02T14:10:59.556Z,11.61
2023-04-02T14:14:04.413Z,10.77
2023-04-02T14:16:47.402Z,13.02
2023-04-02T14:19:31.067Z,12.32
2023-04-02T14:22:11.921Z,13.30
2023-04-02T14:24:51.279Z,13.87
2023-04-02T14:27:26.784Z,12.33
2023-04-02T14:29:59.373Z,11.16
2023-04-02T14:32:33.057Z,10.42
2023-04-02T14:35:11.548Z,11.21
2023-04-02T14:37:45.991Z,12.16
2023-04-02T14:40:22.468Z,12.57
2023-04-02T14:42:56.729Z,14.37
2023-04-02T14:45:39.339Z,14.33
2023-04-02T14:48:21.215Z,14.10
2023-04-02T14:50:50.627Z,13.30
2023-04-02T14:53:26.493Z,13.23
2023-04-02T14:55:58.255Z,15.02
2023-04-02T14:58:30.447Z,14.98
2023-04-02T15:01:01.912Z,11.47
2023-04-02T15:03:35.841Z,11.27
2023-04-02T15:06:06.458Z,11.19
2023-04-02T15:08:39.444Z,10.73
2023-04-02T15:11:11.515Z,11.60
2023-04-02T15:13:44.115Z,11.40
2023-04-02T15:16:15.793Z,12.26
2023-04-02T15:18:43.545Z,10.90
2023-04-02T15:21:29.569Z,11.84
2023-04-02T15:24:05.046Z,11.85
2023-04-02T15:26:40.776Z,13.16
2023-04-02T15:29:28.686Z,12.98
2023-04-02T15:32:04.039Z,11.75
2023-04-02T15:34:35.783Z,10.78
2023-04-02T15:37:15.453Z,10.45
2023-04-02T15:39:56.628Z,11.14
2023-04-02T15:42:28.997Z,10.79
2023-04-02T15:45:19.786Z,9.63
2023-04-02T15:48:00.820Z,9.48
2023-04-02T15:50:45.065Z,9.86
2023-04-02T15:53:29.240Z,9.14
2023-04-02T15:56:14.111Z,9.96
2023-04-02T15:58:55.811Z,11.07
2023-04-02T16:01:32.316Z,10.29
2023-04-02T16:04:19.789Z,10.82
2023-04-02T16:07:02.585Z,11.98
2023-04-02T16:09:39.431Z,11.63
2023-04-02T16:12:16.270Z,11.94
2023-04-02T16:14:46.268Z,11.86
2023-04-02T16:17:24.988Z,11.21
2023-04-02T16:19:57.695Z,10.56
2023-04-02T16:22:28.984Z,10.88
2023-04-02T16:25:01.177Z,10.75
2023-04-02T16:27:35.364Z,11.98
2023-04-02T16:30:23.791Z,11.53
2023-04-02T16:33:08.696Z,12.37
2023-04-02T16:35:46.428Z,11.24
2023-04-02T16:38:26.296Z,11.71
2023-04-02T16:41:08.190Z,10.86
2023-04-02T16:43:50.496Z,10.51
2023-04-02T16:46:38.381Z,10.85
2023-04-02T16:49:18.227Z,11.05
2023-04-02T16:51:54.253Z,11.16
2023-04-02T16:54:29.223Z,11.29
2023-04-02T16:57:14.735Z,10.72
2023-04-02T16:59:50.328Z,10.64
2023-04-02T17:02:31.939Z,10.37
2023-04-02T17:05:13.619Z,9.72
2023-04-02T17:07:45.991Z,9.63
2023-04-02T17:10:31.071Z,9.36
2023-04-02T17:13:17.688Z,10.05
2023-04-02T17:15:50.828Z,10.11
2023-04-02T17:18:20.353Z,8.86
2023-04-02T17:20:48.778Z,9.74
2023-04-02T17:23:18.784Z,9.35
2023-04-02T17:25:51.676Z,9.19
2023-04-02T17:28:25.600Z,8.53
2023-04-02T17:30:57.576Z,8.59
2023-04-02T17:33:27.321Z,7.99
2023-04-02T17:36:22.231Z,8.09
2023-04-02T17:39:02.522Z,7.69
2023-04-02T17:41:37.636Z,8.08
2023-04-02T17:44:18.395Z,8.43
2023-04-02T17:46:56.276Z,8.26
2023-04-02T17:49:32.780Z,7.97
2023-04-02T17:52:06.441Z,7.87
2023-04-02T17:54:43.612Z,7.82
2023-04-02T17:57:26.833Z,8.02
2023-04-02T18:00:10.793Z,8.12
2023-04-02T18:03:06.373Z,8.22
2023-04-02T18:05:41.060Z,7.13
2023-04-02T18:08:16.137Z,7.58
2023-04-02T18:10:51.739Z,7.89
2023-04-02T18:13:32.013Z,7.84
2023-04-02T18:16:10.951Z,7.44
2023-04-02T18:19:05.940Z,7.39
2023-04-02T18:21:43.432Z,7.58
2023-04-02T18:24:42.581Z,7.53
2023-04-02T18:27:25.677Z,7.26
2023-04-02T18:30:00.985Z,7.32
2023-04-02T18:32:42.729Z,7.32
2023-04-02T18:35:21.351Z,7.37
2023-04-02T18:38:05.134Z,7.60
2023-04-02T18:40:43.304Z,7.77
2023-04-02T18:43:22.020Z,7.60
2023-04-02T18:45:56.290Z,6.94
2023-04-02T18:48:42.080Z,7.84
2023-04-02T18:51:18.164Z,6.97
2023-04-02T18:53:47.501Z,6.79
2023-04-02T18:56:19.729Z,6.72
2023-04-02T18:58:53.065Z,7.23
2023-04-02T19:01:28.345Z,7.20
2023-04-02T19:04:02.735Z,7.37
2023-04-02T19:06:37.950Z,7.45
2023-04-02T19:09:12.778Z,7.31
2023-04-02T19:11:40.524Z,7.36
2023-04-02T19:14:12.803Z,7.15
2023-04-02T19:17:01.601Z,7.43
2023-04-02T19:19:31.653Z,7.46
2023-04-02T19:22:13.417Z,7.16
2023-04-02T19:24:56.908Z,7.47
2023-04-02T19:27:32.546Z,7.37
2023-04-02T19:30:11.629Z,7.50
2023-04-02T19:32:50.393Z,7.37
2023-04-02T19:35:24.088Z,7.53
2023-04-02T19:38:14.644Z,7.39
2023-04-02T19:40:51.413Z,7.40
2023-04-02T19:43:19.252Z,7.54
2023-04-02T19:45:49.317Z,7.37
2023-04-02T19:48:20.110Z,7.26
2023-04-02T19:50:48.890Z,7.45
2023-04-02T19:53:18.450Z,6.95
2023-04-02T19:55:47.169Z,7.06
2023-04-02T19:58:23.207Z,6.96
2023-04-02T20:00:50.943Z,6.94
2023-04-02T20:03:18.701Z,7.14
2023-04-02T20:05:46.632Z,7.13
2023-04-02T20:08:14.628Z,6.91
2023-04-02T20:10:44.590Z,6.61
2023-04-02T20:13:12.956Z,6.55
2023-04-02T20:15:41.485Z,6.21
2023-04-02T20:18:10.462Z,6.68
2023-04-02T20:20:39.259Z,6.41
2023-04-02T20:23:07.139Z,6.38
2023-04-02T20:25:34.872Z,6.26
2023-04-02T20:28:04.061Z,5.94
2023-04-02T20:30:33.023Z,6.61
2023-04-02T20:33:01.087Z,6.65
2023-04-02T20:35:29.631Z,6.76
2023-04-02T20:37:57.529Z,6.47
2023-04-02T20:40:25.441Z,6.42
2023-04-02T20:42:53.453Z,6.54
2023-04-02T20:45:22.556Z,6.63
2023-04-02T20:47:50.339Z,6.57
2023-04-02T20:50:18.447Z,5.95
2023-04-02T20:52:46.232Z,6.56
2023-04-02T20:55:13.945Z,6.65
2023-04-02T20:57:41.896Z,6.64
2023-04-02T21:00:12.211Z,6.27
2023-04-02T21:02:41.369Z,5.87
2023-04-02T21:05:09.295Z,5.79
2023-04-02T21:07:37.060Z,5.66
2023-04-02T21:10:05.588Z,6.07
2023-04-02T21:12:33.314Z,5.93
2023-04-02T21:15:02.744Z,5.75
2023-04-02T21:17:31.168Z,5.71
2023-04-02T21:20:00.354Z,6.12
2023-04-02T21:22:28.099Z,5.96
2023-04-02T21:24:55.887Z,6.35
2023-04-02T21:27:25.941Z,6.10
2023-04-02T21:29:54.035Z,5.95
2023-04-02T21:32:22.315Z,5.85
2023-04-02T21:34:50.332Z,5.68
2023-04-02T21:37:19.429Z,5.73
2023-04-02T21:39:47.181Z,5.83
2023-04-02T21:42:15.295Z,5.39
2023-04-02T21:44:43.019Z,5.84
2023-04-02T21:47:10.781Z,5.87
2023-04-02T21:49:38.509Z,5.92
2023-04-02T21:52:06.290Z,5.60
2023-04-02T21:54:35.401Z,5.64
2023-04-02T21:57:03.289Z,5.28
2023-04-02T21:59:31.062Z,5.62
2023-04-02T22:01:58.846Z,5.73
2023-04-02T22:04:28.428Z,5.85
2023-04-02T22:06:56.248Z,5.81
2023-04-02T22:09:26.532Z,5.83
2023-04-02T22:11:58.814Z,5.64
2023-04-02T22:14:27.407Z,5.66
2023-04-02T22:16:55.350Z,5.58
2023-04-02T22:19:23.063Z,5.46
2023-04-02T22:21:51.545Z,5.60
2023-04-02T22:24:22.017Z,5.23
2023-04-02T22:26:50.395Z,5.10
2023-04-02T22:29:19.500Z,5.51
2023-04-02T22:31:47.413Z,5.10
2023-04-02T22:34:15.586Z,5.45
2023-04-02T22:36:43.630Z,5.42
2023-04-02T22:39:12.335Z,5.63
2023-04-02T22:41:40.435Z,5.99
2023-04-02T22:44:08.131Z,6.18
2023-04-02T22:46:37.332Z,6.34
2023-04-02T22:49:05.467Z,5.82
2023-04-02T22:51:33.164Z,5.86
2023-04-02T22:54:00.886Z,6.14
2023-04-02T22:56:32.125Z,6.05
2023-04-02T22:59:00.729Z,6.19
2023-04-02T23:01:30.870Z,6.20
2023-04-02T23:04:00.540Z,6.02
2023-04-02T23:06:28.988Z,6.07
2023-04-02T23:08:56.795Z,5.88
2023-04-02T23:11:27.241Z,5.94
2023-04-02T23:13:57.064Z,6.02
2023-04-02T23:16:26.984Z,6.00
2023-04-02T23:18:55.612Z,5.87
2023-04-02T23:21:25.587Z,6.12
2023-04-02T23:23:53.505Z,5.88
2023-04-02T23:26:22.851Z,5.97
2023-04-02T23:28:51.406Z,5.93
2023-04-02T23:31:21.268Z,5.83
2023-04-02T23:33:49.084Z,5.79
2023-04-02T23:36:22.221Z,5.91
2023-04-02T23:38:54.932Z,6.06
2023-04-02T23:41:24.296Z,6.12
2023-04-02T23:43:52.786Z,6.00
2023-04-02T23:46:20.633Z,6.10
2023-04-02T23:48:50.592Z,5.61
2023-04-02T23:51:18.996Z,5.87
2023-04-02T23:53:46.741Z,5.45
2023-04-02T23:56:15.874Z,5.23
2023-04-02T23:58:43.759Z,5.39
